Time,TemperatureF,DewpointF,PressureIn,WindDirection,WindDirectionDegrees,WindSpeedMPH,WindSpeedGustMPH,Humidity,HourlyPrecipIn,Conditions,Clouds,dailyrainin,SoftwareType,DateUTC
2013-02-12 00:00:00,47.5,41.4,30.20,West,270,2.0,4.0,79,0.00,,,0.69,meteohub,2013-02-12 05:00:00,
2013-02-12 00:05:00,47.5,41.4,30.21,West,270,2.0,4.0,79,0.00,,,0.00,meteohub,2013-02-12 05:05:00,
2013-02-12 00:10:00,47.5,41.4,30.22,NW,315,0.0,2.0,79,0.00,,,0.00,meteohub,2013-02-12 05:10:00,
2013-02-12 00:15:00,47.5,41.4,30.21,NE,45,3.0,3.0,79,0.00,,,0.00,meteohub,2013-02-12 05:15:00,
2013-02-12 00:21:00,47.7,41.5,30.20,East,90,4.0,4.0,79,0.00,,,0.00,meteohub,2013-02-12 05:21:00,
2013-02-12 00:26:00,47.7,41.5,30.19,NE,45,2.0,4.0,79,0.00,,,0.00,meteohub,2013-02-12 05:26:00,
2013-02-12 00:31:00,47.3,41.2,30.19,NE,45,2.0,4.0,79,0.00,,,0.00,meteohub,2013-02-12 05:31:00,
2013-02-12 00:36:00,47.1,41.0,30.18,NE,45,0.0,4.0,79,0.00,,,0.00,meteohub,2013-02-12 05:36:00,
2013-02-12 00:41:00,46.9,40.8,30.19,West,270,2.0,3.0,79,0.00,,,0.00,meteohub,2013-02-12 05:41:00,
2013-02-12 00:46:00,46.8,40.6,30.19,West,270,0.0,2.0,79,0.00,,,0.00,meteohub,2013-02-12 05:46:00,
2013-02-12 00:51:00,46.8,40.6,30.19,North,0,0.0,2.0,79,0.00,,,0.00,meteohub,2013-02-12 05:51:00,
2013-02-12 00:56:00,46.6,40.5,30.18,East,90,2.0,2.0,79,0.00,,,0.00,meteohub,2013-02-12 05:56:00,
2013-02-12 01:01:00,46.6,40.5,30.19,East,90,0.0,2.0,79,0.00,,,0.00,meteohub,2013-02-12 06:01:00,
2013-02-12 01:06:00,46.6,40.5,30.20,East,90,0.0,2.0,79,0.00,,,0.00,meteohub,2013-02-12 06:06:00,
2013-02-12 01:11:00,46.4,40.3,30.21,North,0,0.0,2.0,79,0.00,,,0.00,meteohub,2013-02-12 06:11:00,
2013-02-12 01:16:00,46.2,40.1,30.20,North,0,0.0,2.0,79,0.00,,,0.00,meteohub,2013-02-12 06:16:00,
2013-02-12 01:22:00,46.2,40.1,30.20,North,0,0.0,2.0,79,0.00,,,0.00,meteohub,2013-02-12 06:22:00,
2013-02-12 01:27:00,46.0,39.9,30.19,North,0,0.0,2.0,79,0.00,,,0.00,meteohub,2013-02-12 06:27:00,
2013-02-12 01:32:00,45.9,39.7,30.20,North,0,2.0,0.0,79,0.00,,,0.00,meteohub,2013-02-12 06:32:00,
2013-02-12 01:37:00,45.9,39.7,30.20,North,0,2.0,2.0,79,0.00,,,0.00,meteohub,2013-02-12 06:37:00,
2013-02-12 01:42:00,45.7,39.6,30.20,NW,315,1.0,2.0,79,0.00,,,0.00,meteohub,2013-02-12 06:42:00,
2013-02-12 01:47:00,45.5,39.4,30.20,NW,315,0.0,2.0,79,0.00,,,0.00,meteohub,2013-02-12 06:47:00,
2013-02-12 01:52:00,45.3,39.2,30.20,NW,315,0.0,2.0,79,0.00,,,0.00,meteohub,2013-02-12 06:52:00,
2013-02-12 01:57:00,45.3,39.2,30.20,NE,45,0.0,2.0,79,0.00,,,0.00,meteohub,2013-02-12 06:57:00,
2013-02-12 02:02:00,45.1,39.0,30.21,East,90,3.0,3.0,79,0.00,,,0.00,meteohub,2013-02-12 07:02:00,
2013-02-12 02:07:00,45.1,39.0,30.21,East,90,3.0,3.0,79,0.00,,,0.00,meteohub,2013-02-12 07:07:00,
2013-02-12 02:12:00,45.1,39.0,30.19,East,90,0.0,3.0,79,0.00,,,0.00,meteohub,2013-02-12 07:12:00,
2013-02-12 02:17:00,45.0,38.8,30.19,East,90,2.0,3.0,79,0.00,,,0.00,meteohub,2013-02-12 07:17:00,
2013-02-12 02:22:00,45.0,38.8,30.18,East,90,2.0,3.0,79,0.00,,,0.00,meteohub,2013-02-12 07:22:00,
2013-02-12 02:27:00,44.8,38.7,30.19,NW,315,2.0,2.0,79,0.00,,,0.00,meteohub,2013-02-12 07:27:00,
2013-02-12 02:32:00,44.8,38.7,30.18,West,270,0.0,2.0,79,0.00,,,0.00,meteohub,2013-02-12 07:32:00,
2013-02-12 02:37:00,44.6,38.5,30.19,West,270,2.0,2.0,79,0.00,,,0.00,meteohub,2013-02-12 07:37:00,
2013-02-12 02:42:00,44.6,38.5,30.19,NE,45,2.0,3.0,79,0.00,,,0.00,meteohub,2013-02-12 07:42:00,
2013-02-12 02:47:00,44.6,38.5,30.19,North,0,0.0,3.0,79,0.00,,,0.00,meteohub,2013-02-12 07:47:00,
2013-02-12 02:52:00,44.6,38.5,30.19,North,0,0.0,3.0,79,0.00,,,0.00,meteohub,2013-02-12 07:52:00,
2013-02-12 02:57:00,44.4,38.3,30.21,West,270,2.0,2.0,79,0.00,,,0.00,meteohub,2013-02-12 07:57:00,
2013-02-12 03:02:00,44.4,38.3,30.19,West,270,1.0,2.0,79,0.00,,,0.00,meteohub,2013-02-12 08:02:00,
2013-02-12 03:07:00,44.2,38.1,30.20,West,270,2.0,2.0,79,0.00,,,0.00,meteohub,2013-02-12 08:07:00,
2013-02-12 03:12:00,44.1,37.9,30.19,West,270,1.0,2.0,79,0.00,,,0.00,meteohub,2013-02-12 08:12:00,
2013-02-12 03:17:00,43.9,37.9,30.20,West,270,0.0,2.0,79,0.00,,,0.00,meteohub,2013-02-12 08:17:00,
2013-02-12 03:22:00,43.7,37.8,30.20,West,270,0.0,2.0,79,0.00,,,0.00,meteohub,2013-02-12 08:22:00,
2013-02-12 03:28:00,43.7,37.8,30.21,West,270,0.0,2.0,79,0.00,,,0.00,meteohub,2013-02-12 08:28:00,
2013-02-12 03:33:00,43.7,37.8,30.19,West,270,0.0,0.0,79,0.00,,,0.00,meteohub,2013-02-12 08:33:00,
2013-02-12 03:38:00,43.7,37.8,30.19,West,270,0.0,0.0,79,0.00,,,0.00,meteohub,2013-02-12 08:38:00,
2013-02-12 03:43:00,43.5,37.6,30.19,West,270,0.0,0.0,79,0.00,,,0.00,meteohub,2013-02-12 08:43:00,
2013-02-12 03:48:00,43.5,37.6,30.19,West,270,0.0,0.0,79,0.00,,,0.00,meteohub,2013-02-12 08:48:00,
2013-02-12 03:53:00,43.3,37.4,30.19,West,270,0.0,0.0,79,0.00,,,0.00,meteohub,2013-02-12 08:53:00,
2013-02-12 03:58:00,43.2,37.2,30.19,SE,135,3.0,0.0,79,0.00,,,0.00,meteohub,2013-02-12 08:58:00,
2013-02-12 04:03:00,43.2,37.2,30.20,SE,135,2.0,3.0,79,0.00,,,0.00,meteohub,2013-02-12 09:03:00,
2013-02-12 04:08:00,43.2,37.2,30.20,North,0,0.0,3.0,79,0.00,,,0.00,meteohub,2013-02-12 09:08:00,
2013-02-12 04:13:00,43.2,37.2,30.20,North,0,0.0,3.0,79,0.00,,,0.00,meteohub,2013-02-12 09:13:00,
2013-02-12 04:18:00,43.0,37.0,30.20,NW,315,0.0,2.0,79,0.00,,,0.00,meteohub,2013-02-12 09:18:00,
2013-02-12 04:23:00,43.0,37.0,30.20,West,270,2.0,2.0,79,0.00,,,0.00,meteohub,2013-02-12 09:23:00,
2013-02-12 04:28:00,43.0,37.0,30.19,West,270,1.0,2.0,79,0.00,,,0.00,meteohub,2013-02-12 09:28:00,
2013-02-12 04:33:00,43.0,37.0,30.19,West,270,0.0,2.0,79,0.00,,,0.00,meteohub,2013-02-12 09:33:00,
2013-02-12 04:38:00,42.8,36.9,30.19,West,270,0.0,2.0,79,0.00,,,0.00,meteohub,2013-02-12 09:38:00,
2013-02-12 04:43:00,42.8,36.9,30.18,West,270,0.0,2.0,79,0.00,,,0.00,meteohub,2013-02-12 09:43:00,
2013-02-12 04:48:00,42.8,36.9,30.18,West,270,0.0,0.0,79,0.00,,,0.00,meteohub,2013-02-12 09:48:00,
2013-02-12 04:54:00,42.8,36.9,30.19,West,270,2.0,0.0,79,0.00,,,0.00,meteohub,2013-02-12 09:54:00,
2013-02-12 04:59:00,42.6,36.7,30.18,West,270,2.0,2.0,79,0.00,,,0.00,meteohub,2013-02-12 09:59:00,
2013-02-12 05:04:00,42.4,36.5,30.18,West,270,2.0,2.0,79,0.00,,,0.00,meteohub,2013-02-12 10:04:00,
2013-02-12 05:09:00,42.1,36.1,30.18,West,270,0.0,2.0,79,0.00,,,0.00,meteohub,2013-02-12 10:09:00,
2013-02-12 05:14:00,42.1,36.1,30.18,SE,135,1.0,2.0,79,0.00,,,0.00,meteohub,2013-02-12 10:14:00,
2013-02-12 05:19:00,42.1,36.1,30.17,NW,315,2.0,2.0,79,0.00,,,0.00,meteohub,2013-02-12 10:19:00,
2013-02-12 05:24:00,42.1,36.1,30.19,NW,315,3.0,3.0,79,0.00,,,0.00,meteohub,2013-02-12 10:24:00,
2013-02-12 05:29:00,41.9,36.0,30.19,West,270,0.0,2.0,79,0.00,,,0.00,meteohub,2013-02-12 10:29:00,
2013-02-12 05:34:00,41.9,36.0,30.19,SE,135,2.0,3.0,79,0.00,,,0.00,meteohub,2013-02-12 10:34:00,
2013-02-12 05:39:00,42.1,36.1,30.20,SE,135,0.0,3.0,79,0.00,,,0.00,meteohub,2013-02-12 10:39:00,
2013-02-12 05:44:00,42.1,36.1,30.21,NW,315,0.0,2.0,79,0.00,,,0.00,meteohub,2013-02-12 10:44:00,
2013-02-12 05:49:00,41.9,36.0,30.21,North,0,1.0,2.0,79,0.00,,,0.00,meteohub,2013-02-12 10:49:00,
2013-02-12 05:55:00,41.9,36.0,30.20,SE,135,2.0,2.0,79,0.00,,,0.00,meteohub,2013-02-12 10:55:00,
2013-02-12 06:00:00,42.1,36.1,30.20,SE,135,0.0,2.0,79,0.00,,,0.00,meteohub,2013-02-12 11:00:00,
2013-02-12 06:05:00,42.1,36.1,30.20,SE,135,0.0,2.0,79,0.00,,,0.00,meteohub,2013-02-12 11:05:00,
2013-02-12 06:10:00,42.1,36.1,30.20,NW,315,0.0,2.0,79,0.00,,,0.00,meteohub,2013-02-12 11:10:00,
2013-02-12 06:15:00,41.9,36.0,30.22,SW,225,2.0,2.0,79,0.00,,,0.00,meteohub,2013-02-12 11:15:00,
2013-02-12 06:20:00,41.9,36.0,30.21,West,270,0.0,2.0,79,0.00,,,0.00,meteohub,2013-02-12 11:20:00,
2013-02-12 06:25:00,41.7,35.8,30.22,NE,45,0.0,2.0,79,0.00,,,0.00,meteohub,2013-02-12 11:25:00,
2013-02-12 06:30:00,41.7,35.8,30.20,NE,45,0.0,2.0,79,0.00,,,0.00,meteohub,2013-02-12 11:30:00,
2013-02-12 06:35:00,41.7,35.8,30.20,NE,45,0.0,0.0,79,0.00,,,0.00,meteohub,2013-02-12 11:35:00,
2013-02-12 06:40:00,41.5,35.8,30.21,North,0,0.0,0.0,79,0.00,,,0.00,meteohub,2013-02-12 11:40:00,
2013-02-12 06:45:00,41.5,35.8,30.20,North,0,0.0,0.0,79,0.00,,,0.00,meteohub,2013-02-12 11:45:00,
2013-02-12 06:50:00,41.4,35.6,30.21,West,270,2.0,2.0,79,0.00,,,0.00,meteohub,2013-02-12 11:50:00,
2013-02-12 06:55:00,41.4,35.6,30.21,West,270,0.0,2.0,79,0.00,,,0.00,meteohub,2013-02-12 11:55:00,
2013-02-12 07:00:00,41.4,35.6,30.23,West,270,2.0,2.0,79,0.00,,,0.00,meteohub,2013-02-12 12:00:00,
2013-02-12 07:06:00,41.4,35.6,30.23,West,270,2.0,2.0,79,0.00,,,0.00,meteohub,2013-02-12 12:06:00,
2013-02-12 07:11:00,41.2,35.4,30.22,NE,45,0.0,2.0,79,0.00,,,0.00,meteohub,2013-02-12 12:11:00,
2013-02-12 07:16:00,41.4,35.6,30.23,NW,315,0.0,2.0,79,0.00,,,0.00,meteohub,2013-02-12 12:16:00,
2013-02-12 07:21:00,41.4,35.6,30.22,SE,135,0.0,2.0,79,0.00,,,0.00,meteohub,2013-02-12 12:21:00,
2013-02-12 07:26:00,41.4,35.6,30.23,SW,225,1.0,2.0,79,0.00,,,0.00,meteohub,2013-02-12 12:26:00,
2013-02-12 07:31:00,41.5,35.8,30.23,SW,225,0.0,2.0,79,0.00,,,0.00,meteohub,2013-02-12 12:31:00,
2013-02-12 07:36:00,41.5,35.8,30.24,WSW,248,2.0,2.0,79,0.00,,,0.00,meteohub,2013-02-12 12:36:00,
2013-02-12 07:41:00,41.5,35.8,30.23,West,270,0.0,2.0,79,0.00,,,0.00,meteohub,2013-02-12 12:41:00,
2013-02-12 07:46:00,41.5,35.8,30.23,South,180,2.0,2.0,79,0.00,,,0.00,meteohub,2013-02-12 12:46:00,
2013-02-12 07:51:00,41.7,35.8,30.23,South,180,0.0,2.0,79,0.00,,,0.00,meteohub,2013-02-12 12:51:00,
2013-02-12 07:56:00,41.7,35.8,30.22,South,180,0.0,2.0,79,0.00,,,0.00,meteohub,2013-02-12 12:56:00,
2013-02-12 08:01:00,41.7,35.8,30.22,South,180,0.0,2.0,79,0.00,,,0.00,meteohub,2013-02-12 13:01:00,
2013-02-12 08:06:00,41.7,35.8,30.22,South,180,0.0,0.0,79,0.00,,,0.00,meteohub,2013-02-12 13:06:00,
2013-02-12 08:12:00,41.9,36.0,30.22,South,180,0.0,0.0,79,0.00,,,0.00,meteohub,2013-02-12 13:12:00,
2013-02-12 08:17:00,41.9,36.0,30.22,South,180,0.0,0.0,79,0.00,,,0.00,meteohub,2013-02-12 13:17:00,
2013-02-12 08:22:00,42.1,36.1,30.22,South,180,0.0,0.0,79,0.00,,,0.00,meteohub,2013-02-12 13:22:00,
2013-02-12 08:27:00,42.1,36.1,30.22,South,180,0.0,0.0,79,0.00,,,0.00,meteohub,2013-02-12 13:27:00,
2013-02-12 08:32:00,42.4,36.5,30.21,South,180,0.0,0.0,79,0.00,,,0.00,meteohub,2013-02-12 13:32:00,
2013-02-12 08:37:00,42.6,36.7,30.20,South,180,0.0,0.0,79,0.00,,,0.00,meteohub,2013-02-12 13:37:00,
2013-02-12 08:42:00,45.5,39.7,30.19,East,90,2.0,0.0,80,0.00,,,0.00,meteohub,2013-02-12 13:42:00,
2013-02-12 08:47:00,46.9,41.4,30.19,East,90,3.0,3.0,81,0.00,,,0.00,meteohub,2013-02-12 13:47:00,
2013-02-12 08:52:00,46.9,41.2,30.19,SE,135,2.0,3.0,80,0.00,,,0.00,meteohub,2013-02-12 13:52:00,
2013-02-12 08:57:00,48.4,40.8,30.19,East,90,3.0,3.0,75,0.00,,,0.00,meteohub,2013-02-12 13:57:00,
2013-02-12 09:02:00,48.7,39.4,30.19,SE,135,2.0,4.0,70,0.00,,,0.00,meteohub,2013-02-12 14:02:00,
2013-02-12 09:07:00,48.7,39.4,30.19,SE,135,2.0,4.0,70,0.00,,,0.00,meteohub,2013-02-12 14:07:00,
2013-02-12 09:12:00,52.5,33.8,30.19,East,90,2.0,4.0,48,0.00,,,0.00,meteohub,2013-02-12 14:12:00,
2013-02-12 09:17:00,53.2,29.3,30.18,East,90,2.0,2.0,39,0.00,,,0.00,meteohub,2013-02-12 14:17:00,
2013-02-12 09:22:00,54.5,25.0,30.17,East,90,2.0,3.0,31,0.00,,,0.00,meteohub,2013-02-12 14:22:00,
2013-02-12 09:27:00,54.3,19.8,30.17,East,90,2.0,4.0,25,0.00,,,0.00,meteohub,2013-02-12 14:27:00,
2013-02-12 09:32:00,52.9,14.5,30.18,East,90,4.0,4.0,21,0.00,,,0.00,meteohub,2013-02-12 14:32:00,
2013-02-12 09:37:00,51.1,20.5,30.18,SE,135,1.0,4.0,29,0.00,,,0.00,meteohub,2013-02-12 14:37:00,
2013-02-12 09:42:00,50.9,23.4,30.18,East,90,0.0,4.0,33,0.00,,,0.00,meteohub,2013-02-12 14:42:00,
2013-02-12 09:47:00,53.1,21.4,30.18,SE,135,5.0,5.0,28,0.00,,,0.00,meteohub,2013-02-12 14:47:00,
2013-02-12 09:52:00,54.7,21.0,30.17,North,0,2.0,5.0,26,0.00,,,0.00,meteohub,2013-02-12 14:52:00,
2013-02-12 09:57:00,55.9,6.4,30.17,East,90,6.0,6.0,13,0.00,,,0.00,meteohub,2013-02-12 14:57:00,
2013-02-12 10:02:00,55.8,55.8,30.17,East,90,3.0,6.0,0,0.00,,,0.00,meteohub,2013-02-12 15:02:00,
2013-02-12 10:07:00,55.8,55.8,30.16,East,90,3.0,6.0,0,0.00,,,0.00,meteohub,2013-02-12 15:07:00,
2013-02-12 10:12:00,57.2,57.2,30.16,SE,135,4.0,6.0,0,0.00,,,0.00,meteohub,2013-02-12 15:12:00,
2013-02-12 10:17:00,57.4,57.4,30.15,East,90,3.0,4.0,0,0.00,,,0.00,meteohub,2013-02-12 15:17:00,
2013-02-12 10:22:00,58.1,58.1,30.16,East,90,3.0,5.0,0,0.00,,,0.00,meteohub,2013-02-12 15:22:00,
2013-02-12 10:27:00,58.6,58.6,30.16,NE,45,2.0,5.0,0,0.00,,,0.00,meteohub,2013-02-12 15:27:00,
2013-02-12 10:32:00,60.1,60.1,30.16,SE,135,2.0,4.0,0,0.00,,,0.00,meteohub,2013-02-12 15:32:00,
2013-02-12 10:37:00,60.1,60.1,30.16,East,90,3.0,4.0,0,0.00,,,0.00,meteohub,2013-02-12 15:37:00,
2013-02-12 10:43:00,61.0,61.0,30.17,SE,135,1.0,5.0,0,0.00,,,0.00,meteohub,2013-02-12 15:43:00,
2013-02-12 10:48:00,62.4,62.4,30.15,NE,45,4.0,5.0,0,0.00,,,0.00,meteohub,2013-02-12 15:48:00,
2013-02-12 10:53:00,59.9,59.9,30.15,North,0,2.0,5.0,0,0.00,,,0.00,meteohub,2013-02-12 15:53:00,
2013-02-12 10:58:00,59.4,59.4,30.14,NE,45,2.0,4.0,0,0.00,,,0.00,meteohub,2013-02-12 15:58:00,
2013-02-12 11:03:00,59.0,59.0,30.14,East,90,4.0,4.0,0,0.00,,,0.00,meteohub,2013-02-12 16:03:00,
2013-02-12 11:08:00,58.5,58.5,30.15,NE,45,4.0,4.0,0,0.00,,,0.00,meteohub,2013-02-12 16:08:00,
2013-02-12 11:13:00,58.1,58.1,30.14,SE,135,2.0,4.0,0,0.00,,,0.00,meteohub,2013-02-12 16:13:00,
2013-02-12 11:18:00,57.7,57.7,30.15,NE,45,3.0,4.0,0,0.00,,,0.00,meteohub,2013-02-12 16:18:00,
2013-02-12 11:23:00,57.4,57.4,30.15,SE,135,1.0,4.0,0,0.00,,,0.00,meteohub,2013-02-12 16:23:00,
2013-02-12 11:29:00,57.2,57.2,30.16,SE,135,0.0,3.0,0,0.00,,,0.00,meteohub,2013-02-12 16:29:00,
2013-02-12 11:34:00,57.2,57.2,30.17,SE,135,2.0,3.0,0,0.00,,,0.00,meteohub,2013-02-12 16:34:00,
2013-02-12 11:39:00,57.0,57.0,30.17,South,180,2.0,2.0,0,0.00,,,0.00,meteohub,2013-02-12 16:39:00,
2013-02-12 11:44:00,56.7,56.7,30.17,NW,315,2.0,2.0,0,0.00,,,0.00,meteohub,2013-02-12 16:44:00,
2013-02-12 11:49:00,56.7,56.7,30.16,NW,315,1.0,4.0,0,0.00,,,0.00,meteohub,2013-02-12 16:49:00,
2013-02-12 11:54:00,56.8,56.8,30.16,NW,315,0.0,4.0,0,0.00,,,0.00,meteohub,2013-02-12 16:54:00,
2013-02-12 11:59:00,56.8,56.8,30.15,NW,315,2.0,4.0,0,0.00,,,0.00,meteohub,2013-02-12 16:59:00,
2013-02-12 12:04:00,56.8,56.8,30.15,NW,315,2.0,2.0,0,0.00,,,0.00,meteohub,2013-02-12 17:04:00,
2013-02-12 12:09:00,57.0,57.0,30.15,NW,315,0.0,2.0,0,0.00,,,0.00,meteohub,2013-02-12 17:09:00,
2013-02-12 12:14:00,57.4,57.4,30.15,NW,315,0.0,2.0,0,0.00,,,0.00,meteohub,2013-02-12 17:14:00,
2013-02-12 12:19:00,57.7,57.7,30.14,NW,315,2.0,2.0,0,0.00,,,0.00,meteohub,2013-02-12 17:19:00,
2013-02-12 12:24:00,57.9,57.9,30.14,NW,315,2.0,2.0,0,0.00,,,0.00,meteohub,2013-02-12 17:24:00,
2013-02-12 12:30:00,57.4,57.4,30.14,West,270,3.0,3.0,0,0.00,,,0.00,meteohub,2013-02-12 17:30:00,
2013-02-12 12:35:00,56.7,56.7,30.14,SW,225,2.0,4.0,0,0.00,,,0.00,meteohub,2013-02-12 17:35:00,
2013-02-12 12:40:00,56.7,56.7,30.13,West,270,3.0,4.0,0,0.00,,,0.00,meteohub,2013-02-12 17:40:00,
2013-02-12 12:45:00,56.5,56.5,30.14,West,270,2.0,4.0,0,0.00,,,0.00,meteohub,2013-02-12 17:45:00,
2013-02-12 12:50:00,56.3,56.3,30.13,SW,225,2.0,4.0,0,0.00,,,0.00,meteohub,2013-02-12 17:50:00,
2013-02-12 12:55:00,56.3,56.3,30.14,East,90,2.0,4.0,0,0.00,,,0.00,meteohub,2013-02-12 17:55:00,
2013-02-12 13:00:00,56.5,56.5,30.14,East,90,1.0,4.0,0,0.00,,,0.00,meteohub,2013-02-12 18:00:00,
2013-02-12 13:05:00,56.5,56.5,30.14,East,90,1.0,2.0,0,0.00,,,0.00,meteohub,2013-02-12 18:05:00,
2013-02-12 13:10:00,56.5,56.5,30.14,East,90,2.0,2.0,0,0.00,,,0.00,meteohub,2013-02-12 18:10:00,
2013-02-12 13:16:00,56.3,56.3,30.12,North,0,4.0,4.0,0,0.00,,,0.00,meteohub,2013-02-12 18:16:00,
2013-02-12 13:21:00,55.9,55.9,30.12,East,90,2.0,4.0,0,0.00,,,0.00,meteohub,2013-02-12 18:21:00,
2013-02-12 13:26:00,55.9,55.9,30.12,South,180,2.0,4.0,0,0.00,,,0.00,meteohub,2013-02-12 18:26:00,
2013-02-12 13:31:00,55.9,55.9,30.11,NW,315,2.0,4.0,0,0.00,,,0.00,meteohub,2013-02-12 18:31:00,
2013-02-12 13:36:00,55.8,0.9,30.12,NE,45,2.0,4.0,10,0.00,,,0.00,meteohub,2013-02-12 18:36:00,
2013-02-12 13:41:00,55.6,0.7,30.12,NE,45,0.0,4.0,10,0.00,,,0.00,meteohub,2013-02-12 18:41:00,
2013-02-12 13:46:00,55.4,4.3,30.11,SE,135,1.0,2.0,12,0.00,,,0.00,meteohub,2013-02-12 18:46:00,
2013-02-12 13:51:00,55.4,4.3,30.10,SE,135,0.0,2.0,12,0.00,,,0.00,meteohub,2013-02-12 18:51:00,
2013-02-12 13:57:00,55.4,7.7,30.10,SE,135,0.0,1.0,14,0.00,,,0.00,meteohub,2013-02-12 18:57:00,
2013-02-12 14:02:00,55.2,7.5,30.10,SE,135,1.0,1.0,14,0.00,,,0.00,meteohub,2013-02-12 19:02:00,
2013-02-12 14:07:00,55.2,7.5,30.10,SE,135,1.0,1.0,14,0.00,,,0.00,meteohub,2013-02-12 19:07:00,
2013-02-12 14:12:00,54.3,16.7,30.10,SE,135,0.0,1.0,22,0.00,,,0.00,meteohub,2013-02-12 19:12:00,
2013-02-12 14:17:00,54.3,17.8,30.10,SE,135,2.0,2.0,23,0.00,,,0.00,meteohub,2013-02-12 19:17:00,
2013-02-12 14:22:00,54.1,17.6,30.09,NW,315,0.0,2.0,23,0.00,,,0.00,meteohub,2013-02-12 19:22:00,
2013-02-12 14:27:00,54.1,19.6,30.10,NW,315,0.0,2.0,25,0.00,,,0.00,meteohub,2013-02-12 19:27:00,
2013-02-12 14:32:00,54.0,18.5,30.11,NW,315,2.0,2.0,24,0.00,,,0.00,meteohub,2013-02-12 19:32:00,
2013-02-12 14:37:00,53.8,21.0,30.12,NW,315,2.0,2.0,27,0.00,,,0.00,meteohub,2013-02-12 19:37:00,
2013-02-12 14:42:00,53.4,18.0,30.12,NW,315,1.0,3.0,24,0.00,,,0.00,meteohub,2013-02-12 19:42:00,
2013-02-12 14:47:00,53.4,18.0,30.12,South,180,2.0,3.0,24,0.00,,,0.00,meteohub,2013-02-12 19:47:00,
2013-02-12 14:52:00,53.2,17.8,30.12,SW,225,2.0,3.0,24,0.00,,,0.00,meteohub,2013-02-12 19:52:00,
2013-02-12 14:57:00,53.2,19.8,30.11,South,180,0.0,4.0,26,0.00,,,0.00,meteohub,2013-02-12 19:57:00,
2013-02-12 15:02:00,53.1,20.5,30.11,South,180,0.0,4.0,27,0.00,,,0.00,meteohub,2013-02-12 20:02:00,
2013-02-12 15:07:00,53.1,20.5,30.11,South,180,0.0,4.0,27,0.00,,,0.00,meteohub,2013-02-12 20:07:00,
2013-02-12 15:12:00,52.7,25.0,30.12,South,180,0.0,2.0,33,0.00,,,0.00,meteohub,2013-02-12 20:12:00,
2013-02-12 15:17:00,52.3,25.3,30.12,South,180,0.0,0.0,34,0.00,,,0.00,meteohub,2013-02-12 20:17:00,
2013-02-12 15:22:00,51.6,26.6,30.12,South,180,0.0,0.0,37,0.03,,,0.03,meteohub,2013-02-12 20:22:00,
2013-02-12 15:27:00,51.1,27.3,30.12,South,180,0.0,0.0,39,0.03,,,0.03,meteohub,2013-02-12 20:27:00,
2013-02-12 15:32:00,50.5,28.0,30.11,NE,45,1.0,0.0,41,0.03,,,0.03,meteohub,2013-02-12 20:32:00,
2013-02-12 15:37:00,50.2,29.5,30.10,NE,45,0.0,2.0,44,0.03,,,0.03,meteohub,2013-02-12 20:37:00,
2013-02-12 15:42:00,50.0,29.8,30.09,NE,45,0.0,2.0,45,0.03,,,0.03,meteohub,2013-02-12 20:42:00,
2013-02-12 15:47:00,49.8,30.7,30.09,NE,45,0.0,2.0,47,0.03,,,0.03,meteohub,2013-02-12 20:47:00,
2013-02-12 15:52:00,49.8,31.3,30.08,NE,45,0.0,2.0,48,0.03,,,0.03,meteohub,2013-02-12 20:52:00,
2013-02-12 15:57:00,49.6,32.2,30.08,NE,45,0.0,2.0,50,0.03,,,0.03,meteohub,2013-02-12 20:57:00,
2013-02-12 16:03:00,49.6,32.5,30.10,NW,315,0.0,1.0,51,0.03,,,0.03,meteohub,2013-02-12 21:03:00,
2013-02-12 16:08:00,49.3,34.3,30.10,NW,315,2.0,0.0,56,0.03,,,0.03,meteohub,2013-02-12 21:08:00,
2013-02-12 16:13:00,49.1,34.7,30.10,NW,315,0.0,2.0,57,0.03,,,0.03,meteohub,2013-02-12 21:13:00,
2013-02-12 16:18:00,49.1,35.6,30.08,East,90,2.0,2.0,59,0.03,,,0.03,meteohub,2013-02-12 21:18:00,
2013-02-12 16:23:00,49.3,36.1,30.07,East,90,2.0,3.0,60,0.03,,,0.07,meteohub,2013-02-12 21:23:00,
2013-02-12 16:28:00,49.5,36.7,30.05,East,90,0.0,3.0,61,0.07,,,0.10,meteohub,2013-02-12 21:28:00,
2013-02-12 16:33:00,49.6,37.4,30.04,East,90,0.0,3.0,62,0.07,,,0.10,meteohub,2013-02-12 21:33:00,
2013-02-12 16:38:00,49.6,37.4,30.03,East,90,0.0,2.0,62,0.07,,,0.10,meteohub,2013-02-12 21:38:00,
2013-02-12 16:43:00,49.8,37.9,30.03,NNW,338,0.0,2.0,63,0.07,,,0.10,meteohub,2013-02-12 21:43:00,
2013-02-12 16:48:00,49.8,37.2,30.03,SE,135,2.0,2.0,61,0.07,,,0.10,meteohub,2013-02-12 21:48:00,
2013-02-12 16:53:00,49.8,36.9,30.03,SE,135,1.0,2.0,60,0.07,,,0.10,meteohub,2013-02-12 21:53:00,
2013-02-12 16:59:00,49.6,36.7,30.04,South,180,2.0,2.0,60,0.07,,,0.10,meteohub,2013-02-12 21:59:00,
2013-02-12 17:04:00,49.6,36.7,30.04,South,180,1.0,2.0,60,0.07,,,0.10,meteohub,2013-02-12 22:04:00,
2013-02-12 17:09:00,49.6,36.7,30.01,South,180,1.0,2.0,60,0.07,,,0.10,meteohub,2013-02-12 22:09:00,
2013-02-12 17:14:00,48.9,36.7,30.01,NE,45,2.0,2.0,62,0.07,,,0.10,meteohub,2013-02-12 22:14:00,
2013-02-12 17:19:00,48.7,36.5,30.00,North,0,2.0,3.0,62,0.03,,,0.10,meteohub,2013-02-12 22:19:00,
2013-02-12 17:24:00,48.7,36.5,29.99,NW,315,0.0,3.0,62,0.03,,,0.10,meteohub,2013-02-12 22:24:00,
2013-02-12 17:29:00,48.6,36.7,30.01,West,270,3.0,3.0,63,0.00,,,0.10,meteohub,2013-02-12 22:29:00,
2013-02-12 17:34:00,48.4,37.4,30.04,West,270,2.0,3.0,65,0.00,,,0.10,meteohub,2013-02-12 22:34:00,
2013-02-12 17:39:00,48.2,37.6,30.06,West,270,0.0,3.0,66,0.00,,,0.10,meteohub,2013-02-12 22:39:00,
2013-02-12 17:44:00,48.0,37.8,30.08,West,270,0.0,4.0,67,0.00,,,0.10,meteohub,2013-02-12 22:44:00,
2013-02-12 17:50:00,47.8,37.6,30.08,West,270,0.0,4.0,67,0.00,,,0.10,meteohub,2013-02-12 22:50:00,
2013-02-12 17:55:00,47.7,37.4,30.07,East,90,0.0,4.0,67,0.00,,,0.10,meteohub,2013-02-12 22:55:00,
2013-02-12 18:00:00,47.7,37.4,30.07,East,90,0.0,3.0,67,0.00,,,0.10,meteohub,2013-02-12 23:00:00,
2013-02-12 18:05:00,47.7,37.4,30.07,East,90,0.0,0.0,67,0.00,,,0.10,meteohub,2013-02-12 23:05:00,
2013-02-12 18:10:00,47.5,37.2,30.07,East,90,0.0,0.0,67,0.00,,,0.10,meteohub,2013-02-12 23:10:00,
2013-02-12 18:15:00,47.3,37.0,30.06,East,90,0.0,0.0,67,0.00,,,0.10,meteohub,2013-02-12 23:15:00,
2013-02-12 18:20:00,47.1,36.9,30.05,East,90,0.0,0.0,67,0.00,,,0.10,meteohub,2013-02-12 23:20:00,
2013-02-12 18:25:00,47.1,37.2,30.05,North,0,2.0,3.0,68,0.03,,,0.13,meteohub,2013-02-12 23:25:00,
2013-02-12 18:30:00,46.9,37.0,30.04,NE,45,0.0,3.0,68,0.03,,,0.13,meteohub,2013-02-12 23:30:00,
2013-02-12 18:35:00,46.9,37.0,30.02,East,90,2.0,3.0,68,0.07,,,0.17,meteohub,2013-02-12 23:35:00,
2013-02-12 18:40:00,47.1,37.6,30.02,NNW,338,5.0,5.0,69,0.07,,,0.17,meteohub,2013-02-12 23:40:00,
2013-02-12 18:45:00,47.1,37.9,30.04,SSW,203,2.0,5.0,70,0.07,,,0.17,meteohub,2013-02-12 23:45:00,
2013-02-12 18:50:00,47.1,37.9,30.04,SW,225,0.0,5.0,70,0.07,,,0.17,meteohub,2013-02-12 23:50:00,
2013-02-12 18:56:00,47.1,37.9,30.04,North,0,0.0,5.0,70,0.07,,,0.17,meteohub,2013-02-12 23:56:00,
2013-02-12 19:01:00,47.1,37.9,30.04,NW,315,0.0,2.0,70,0.10,,,0.20,meteohub,2013-02-13 00:01:00,
2013-02-12 19:06:00,47.1,37.9,30.06,NW,315,0.0,1.0,70,0.10,,,0.20,meteohub,2013-02-13 00:06:00,
2013-02-12 19:11:00,46.9,37.8,30.06,SW,225,0.0,1.0,70,0.10,,,0.20,meteohub,2013-02-13 00:11:00,
2013-02-12 19:16:00,46.8,37.6,30.07,SW,225,0.0,1.0,70,0.10,,,0.20,meteohub,2013-02-13 00:16:00,
2013-02-12 19:21:00,46.8,37.9,30.07,North,0,1.0,1.0,71,0.07,,,0.20,meteohub,2013-02-13 00:21:00,
2013-02-12 19:26:00,46.8,37.9,30.05,NE,45,2.0,3.0,71,0.07,,,0.20,meteohub,2013-02-13 00:26:00,
2013-02-12 19:31:00,46.6,37.9,30.05,North,0,0.0,3.0,71,0.07,,,0.20,meteohub,2013-02-13 00:31:00,
2013-02-12 19:37:00,46.6,37.9,30.04,North,0,0.0,3.0,71,0.07,,,0.23,meteohub,2013-02-13 00:37:00,
2013-02-12 19:42:00,46.6,37.9,30.04,NW,315,0.0,2.0,71,0.07,,,0.23,meteohub,2013-02-13 00:42:00,
2013-02-12 19:47:00,46.6,37.9,30.05,NW,315,0.0,2.0,71,0.07,,,0.23,meteohub,2013-02-13 00:47:00,
2013-02-12 19:52:00,46.4,37.8,30.05,SE,135,2.0,2.0,71,0.07,,,0.23,meteohub,2013-02-13 00:52:00,
2013-02-12 19:57:00,46.4,37.8,30.04,SE,135,0.0,2.0,71,0.07,,,0.23,meteohub,2013-02-13 00:57:00,
2013-02-12 20:02:00,46.4,37.8,30.04,West,270,1.0,2.0,71,0.03,,,0.23,meteohub,2013-02-13 01:02:00,
2013-02-12 20:07:00,46.4,37.8,30.06,West,270,1.0,2.0,71,0.03,,,0.23,meteohub,2013-02-13 01:07:00,
2013-02-12 20:12:00,46.4,38.3,30.06,West,270,4.0,4.0,73,0.03,,,0.23,meteohub,2013-02-13 01:12:00,
2013-02-12 20:17:00,46.4,38.3,30.05,East,90,5.0,6.0,73,0.07,,,0.26,meteohub,2013-02-13 01:17:00,
2013-02-12 20:22:00,46.4,38.3,30.08,NW,315,3.0,6.0,73,0.07,,,0.26,meteohub,2013-02-13 01:22:00,
2013-02-12 20:27:00,46.2,38.1,30.04,East,90,6.0,6.0,73,0.07,,,0.26,meteohub,2013-02-13 01:27:00,
2013-02-12 20:32:00,46.0,37.8,30.05,West,270,2.0,6.0,72,0.07,,,0.26,meteohub,2013-02-13 01:32:00,
2013-02-12 20:37:00,45.9,37.6,30.03,East,90,3.0,6.0,72,0.03,,,0.26,meteohub,2013-02-13 01:37:00,
2013-02-12 20:42:00,45.9,37.6,30.04,NW,315,0.0,6.0,72,0.03,,,0.26,meteohub,2013-02-13 01:42:00,
2013-02-12 20:47:00,45.9,37.6,30.05,North,0,2.0,4.0,72,0.03,,,0.26,meteohub,2013-02-13 01:47:00,
2013-02-12 20:52:00,45.9,37.6,30.04,North,0,0.0,4.0,72,0.07,,,0.30,meteohub,2013-02-13 01:52:00,
2013-02-12 20:57:00,45.9,37.6,30.04,East,90,2.0,4.0,72,0.07,,,0.30,meteohub,2013-02-13 01:57:00,
2013-02-12 21:02:00,45.9,37.6,30.04,NE,45,3.0,4.0,72,0.13,,,0.36,meteohub,2013-02-13 02:02:00,
2013-02-12 21:07:00,45.9,37.6,30.04,NE,45,3.0,4.0,72,0.13,,,0.36,meteohub,2013-02-13 02:07:00,
2013-02-12 21:12:00,45.9,37.6,30.06,SE,135,0.0,3.0,72,0.10,,,0.36,meteohub,2013-02-13 02:12:00,
2013-02-12 21:17:00,45.9,37.6,30.05,NW,315,2.0,3.0,72,0.10,,,0.36,meteohub,2013-02-13 02:17:00,
2013-02-12 21:22:00,45.9,37.9,30.06,West,270,2.0,3.0,73,0.17,,,0.43,meteohub,2013-02-13 02:22:00,
2013-02-12 21:27:00,45.9,37.9,30.04,East,90,4.0,4.0,73,0.20,,,0.46,meteohub,2013-02-13 02:27:00,
2013-02-12 21:32:00,45.9,37.9,30.01,East,90,2.0,4.0,73,0.20,,,0.46,meteohub,2013-02-13 02:32:00,
2013-02-12 21:37:00,45.7,37.8,30.03,SE,135,1.0,4.0,73,0.20,,,0.46,meteohub,2013-02-13 02:37:00,
2013-02-12 21:42:00,45.7,37.8,30.03,East,90,4.0,4.0,73,0.20,,,0.46,meteohub,2013-02-13 02:42:00,
2013-02-12 21:47:00,45.7,37.8,30.02,SE,135,8.0,8.0,73,0.20,,,0.46,meteohub,2013-02-13 02:47:00,
2013-02-12 21:52:00,45.7,37.8,30.02,SE,135,3.0,8.0,73,0.17,,,0.46,meteohub,2013-02-13 02:52:00,
2013-02-12 21:57:00,45.7,37.4,30.02,SE,135,5.0,8.0,72,0.13,,,0.46,meteohub,2013-02-13 02:57:00,
2013-02-12 22:02:00,45.9,37.6,30.02,East,90,4.0,8.0,72,0.10,,,0.46,meteohub,2013-02-13 03:02:00,
2013-02-12 22:07:00,45.9,37.6,30.02,East,90,4.0,5.0,72,0.10,,,0.46,meteohub,2013-02-13 03:07:00,
2013-02-12 22:12:00,45.7,37.0,30.03,SE,135,12.0,12.0,71,0.10,,,0.46,meteohub,2013-02-13 03:12:00,
2013-02-12 22:17:00,45.7,36.0,30.03,SE,135,14.0,14.0,68,0.10,,,0.50,meteohub,2013-02-13 03:17:00,
2013-02-12 22:22:00,45.7,34.7,30.03,East,90,8.0,14.0,65,0.07,,,0.50,meteohub,2013-02-13 03:22:00,
2013-02-12 22:27:00,45.7,33.6,30.02,East,90,5.0,14.0,62,0.03,,,0.50,meteohub,2013-02-13 03:27:00,
2013-02-12 22:32:00,45.5,32.5,30.02,SE,135,8.0,14.0,60,0.03,,,0.50,meteohub,2013-02-13 03:32:00,
2013-02-12 22:37:00,45.3,32.0,30.01,East,90,4.0,13.0,59,0.03,,,0.50,meteohub,2013-02-13 03:37:00,
2013-02-12 22:42:00,45.1,31.5,30.01,East,90,4.0,13.0,58,0.03,,,0.50,meteohub,2013-02-13 03:42:00,
2013-02-12 22:47:00,45.1,31.5,30.01,East,90,4.0,8.0,58,0.03,,,0.50,meteohub,2013-02-13 03:47:00,
2013-02-12 22:52:00,45.0,30.7,30.00,East,90,6.0,10.0,57,0.03,,,0.50,meteohub,2013-02-13 03:52:00,
2013-02-12 22:57:00,45.0,30.7,30.00,NE,45,3.0,10.0,57,0.03,,,0.50,meteohub,2013-02-13 03:57:00,
2013-02-12 23:02:00,45.0,30.7,29.99,East,90,5.0,6.0,57,0.03,,,0.50,meteohub,2013-02-13 04:02:00,
2013-02-12 23:07:00,45.0,30.7,29.97,East,90,5.0,6.0,57,0.03,,,0.50,meteohub,2013-02-13 04:07:00,
2013-02-12 23:12:00,45.0,30.0,29.98,NE,45,5.0,6.0,55,0.03,,,0.50,meteohub,2013-02-13 04:12:00,
2013-02-12 23:17:00,45.0,29.5,29.98,East,90,4.0,8.0,54,0.00,,,0.50,meteohub,2013-02-13 04:17:00,
2013-02-12 23:22:00,44.8,29.8,29.97,East,90,4.0,8.0,55,0.00,,,0.50,meteohub,2013-02-13 04:22:00,
2013-02-12 23:27:00,44.8,29.3,29.97,East,90,4.0,8.0,54,0.00,,,0.50,meteohub,2013-02-13 04:27:00,
2013-02-12 23:32:00,44.8,29.3,29.98,East,90,3.0,9.0,54,0.00,,,0.50,meteohub,2013-02-13 04:32:00,
2013-02-12 23:37:00,44.8,29.8,29.98,East,90,4.0,9.0,55,0.00,,,0.50,meteohub,2013-02-13 04:37:00,
2013-02-12 23:42:00,45.1,29.7,29.98,East,90,8.0,8.0,54,0.00,,,0.50,meteohub,2013-02-13 04:42:00,
2013-02-12 23:47:00,45.0,28.9,29.98,East,90,9.0,9.0,53,0.00,,,0.50,meteohub,2013-02-13 04:47:00,
2013-02-12 23:52:00,45.0,28.9,29.98,East,90,5.0,9.0,53,0.00,,,0.50,meteohub,2013-02-13 04:52:00,
2013-02-12 23:58:00,45.0,28.9,29.98,East,90,8.0,9.0,53,0.00,,,0.50,meteohub,2013-02-13 04:58:00,